Time;durP1;ratioP1;P1;durP2;ratioP2;P2;SDS_P1;SDS_P2;PMS_P1;PMS_P2;Temp;Humidity;BMP_temperature;BMP_pressure;BME280_temperature;BME280_humidity;BME280_pressure;Samples;Min_cycle;Max_cycle;Signal;HPM_P1;HPM_P2
2021/01/09 00:02:02;;;;;;;7.32;4.97;;;;;;;1.24;85.52;101760.38;4989715;28;20033;-78
2021/01/09 00:04:28;;;;;;;8.45;4.82;;;;;;;1.24;85.72;101771.94;4990456;28;20086;-77
2021/01/09 00:06:54;;;;;;;6.82;4.45;;;;;;;1.23;86.38;101764.91;4991186;28;20407;-77
2021/01/09 00:09:20;;;;;;;6.82;4.05;;;;;;;1.22;85.57;101768.59;4987447;28;20102;-77
2021/01/09 00:11:45;;;;;;;6.93;4.40;;;;;;;1.19;85.74;101763.59;4985970;28;20030;-78
2021/01/09 00:14:11;;;;;;;9.25;4.85;;;;;;;1.17;86.01;101765.63;4991656;28;20034;-77
2021/01/09 00:16:36;;;;;;;6.30;4.63;;;;;;;1.17;85.80;101772.88;4984437;28;20038;-77
2021/01/09 00:19:04;;;;;;;6.85;4.60;;;;;;;1.16;85.49;101780.09;4989143;28;20396;-78
2021/01/09 00:21:36;;;;;;;7.57;4.45;;;;;;;1.14;85.33;101781.31;4991166;28;20046;-77
2021/01/09 00:24:01;;;;;;;;;;;;;;;1.15;85.65;101783.81;4991465;28;20042;-77
2021/01/09 00:26:30;;;;;;;7.78;4.80;;;;;;;1.13;85.57;101775.09;4991656;28;19929;-77
2021/01/09 00:28:55;;;;;;;6.80;4.75;;;;;;;1.12;85.61;101781.50;4990433;28;20484;-77
2021/01/09 00:31:21;;;;;;;7.70;5.25;;;;;;;1.11;85.92;101787.88;4991334;28;20042;-77
2021/01/09 00:33:49;;;;;;;9.25;5.10;;;;;;;1.10;85.63;101781.69;4989865;28;20484;-77
2021/01/09 00:36:15;;;;;;;7.38;4.45;;;;;;;1.10;85.39;101792.41;4992408;28;20070;-76
2021/01/09 00:38:40;;;;;;;7.40;4.88;;;;;;;1.12;85.74;101789.56;4990834;28;20030;-77
2021/01/09 00:41:06;;;;;;;8.13;4.40;;;;;;;1.10;85.79;101796.97;4992772;28;20495;-77
2021/01/09 00:43:31;;;;;;;7.22;4.20;;;;;;;1.10;85.60;101802.34;4990714;28;20030;-77
2021/01/09 00:45:57;;;;;;;5.75;4.18;;;;;;;1.08;85.70;101799.00;4993399;28;20030;-77
2021/01/09 00:48:22;;;;;;;7.03;4.18;;;;;;;1.04;85.47;101808.47;4991281;28;20026;-77
2021/01/09 00:50:49;;;;;;;7.18;4.43;;;;;;;1.04;85.31;101811.13;4992680;28;20029;-77
2021/01/09 00:53:14;;;;;;;7.28;3.80;;;;;;;1.04;85.56;101808.47;4990321;28;20030;-77
2021/01/09 00:55:40;;;;;;;6.55;4.20;;;;;;;1.05;85.63;101805.56;4992657;28;20534;-77
2021/01/09 00:58:05;;;;;;;7.35;4.22;;;;;;;1.07;86.00;101816.13;4992133;28;20042;-77
2021/01/09 01:00:31;;;;;;;7.28;4.18;;;;;;;1.08;85.79;101809.72;4992874;28;20328;-77
2021/01/09 01:02:56;;;;;;;6.25;4.07;;;;;;;1.11;85.71;101809.34;4990399;28;20038;-77
2021/01/09 01:05:21;;;;;;;6.38;4.15;;;;;;;1.11;85.55;101812.03;4992789;28;20026;-77
2021/01/09 01:07:47;;;;;;;7.05;4.00;;;;;;;1.12;85.68;101813.72;4991187;28;20472;-77
2021/01/09 01:10:14;;;;;;;5.97;4.07;;;;;;;1.10;85.37;101818.44;4988136;28;20038;-77
2021/01/09 01:12:40;;;;;;;7.05;3.75;;;;;;;1.11;85.64;101817.41;4989332;28;20030;-77
2021/01/09 01:15:06;;;;;;;5.78;3.92;;;;;;;1.13;85.30;101812.69;4993191;28;20029;-77
2021/01/09 01:17:33;;;;;;;8.05;5.10;;;;;;;1.17;85.55;101813.97;4989547;28;20034;-78
2021/01/09 01:19:58;;;;;;;7.43;4.72;;;;;;;1.18;85.63;101814.84;4991806;28;20089;-77
2021/01/09 01:22:24;;;;;;;7.13;4.68;;;;;;;1.20;85.57;101819.00;4989560;28;20034;-77
2021/01/09 01:24:49;;;;;;;7.72;4.30;;;;;;;1.19;85.48;101816.50;4987970;28;20046;-77
2021/01/09 01:27:14;;;;;;;6.65;4.05;;;;;;;1.17;85.20;101819.34;4991348;28;20530;-78
2021/01/09 01:29:40;;;;;;;7.28;4.75;;;;;;;1.17;85.34;101818.53;4990133;28;20499;-77
2021/01/09 01:32:05;;;;;;;6.75;4.45;;;;;;;1.17;85.33;101813.97;4974973;28;20467;-77
2021/01/09 01:34:31;;;;;;;6.00;4.50;;;;;;;1.13;85.05;101818.06;4990059;28;20507;-77
2021/01/09 01:36:56;;;;;;;7.28;4.38;;;;;;;1.13;85.55;101817.25;4991482;28;20085;-77
2021/01/09 01:39:21;;;;;;;8.88;5.30;;;;;;;1.14;85.79;101817.03;4986905;28;20038;-78
2021/01/09 01:41:47;;;;;;;7.45;4.60;;;;;;;1.11;85.71;101820.09;4991934;28;20023;-77
2021/01/09 01:44:13;;;;;;;8.00;4.90;;;;;;;1.12;85.69;101821.78;4991163;28;20018;-77
2021/01/09 01:46:38;;;;;;;5.88;4.28;;;;;;;1.13;85.25;101825.31;4990417;28;20026;-77
2021/01/09 01:49:07;;;;;;;7.82;4.80;;;;;;;1.13;85.15;101820.75;4973398;28;20026;-77
2021/01/09 01:51:33;;;;;;;8.07;4.57;;;;;;;1.16;85.65;101823.06;4972921;28;20038;-77
2021/01/09 01:53:59;;;;;;;7.82;4.80;;;;;;;1.18;85.85;101826.41;4989251;28;20026;-77
2021/01/09 01:56:25;;;;;;;8.25;5.40;;;;;;;1.18;84.94;101831.78;4994464;28;20033;-77
2021/01/09 01:58:51;;;;;;;8.40;4.82;;;;;;;1.20;85.71;101836.94;5008860;28;20023;-77
2021/01/09 02:01:16;;;;;;;8.68;5.18;;;;;;;1.23;85.33;101834.75;4995498;28;20077;-77
2021/01/09 02:03:42;;;;;;;7.97;5.28;;;;;;;1.24;85.89;101839.09;4991534;28;20030;-77
2021/01/09 02:06:15;;;;;;;8.20;5.10;;;;;;;1.25;85.89;101838.06;4995985;28;20022;-77
2021/01/09 02:08:47;;;;;;;8.32;5.22;;;;;;;1.28;85.50;101844.91;4986598;28;20026;-78
2021/01/09 02:11:19;;;;;;;;;;;;;;;1.32;85.50;101841.69;4992188;28;20054;-78
2021/01/09 02:13:47;;;;;;;7.35;4.82;;;;;;;1.33;85.30;101834.44;4993528;28;19917;-77
2021/01/09 02:16:13;;;;;;;7.50;4.88;;;;;;;1.30;85.12;101838.34;4995826;28;20168;-78
2021/01/09 02:18:41;;;;;;;8.15;4.60;;;;;;;1.31;85.65;101840.03;4991991;28;20018;-79
2021/01/09 02:21:15;;;;;;;7.28;4.75;;;;;;;1.32;85.82;101836.31;4978447;28;20062;-78
2021/01/09 02:23:41;;;;;;;8.63;5.05;;;;;;;1.31;85.12;101842.72;4972738;28;20077;-78
2021/01/09 02:26:06;;;;;;;8.20;5.13;;;;;;;1.32;85.54;101847.06;4993241;28;20030;-78
2021/01/09 02:28:31;;;;;;;7.93;4.90;;;;;;;1.35;85.68;101845.00;4992158;28;20030;-78
2021/01/09 02:30:57;;;;;;;9.23;4.95;;;;;;;1.36;84.97;101847.50;4994425;28;20085;-78
2021/01/09 02:33:22;;;;;;;7.75;4.88;;;;;;;1.38;85.30;101839.28;4976602;28;20026;-78
2021/01/09 02:35:48;;;;;;;8.57;4.60;;;;;;;1.39;85.07;101838.22;4993030;28;20045;-78
2021/01/09 02:38:13;;;;;;;7.78;4.50;;;;;;;1.40;85.46;101837.22;4975739;28;20434;-78
2021/01/09 02:40:39;;;;;;;8.07;4.90;;;;;;;1.41;85.09;101844.25;4995561;28;20542;-77
2021/01/09 02:43:08;;;;;;;8.43;4.85;;;;;;;1.41;84.79;101847.78;4975845;28;20053;-78
2021/01/09 02:45:34;;;;;;;6.93;4.32;;;;;;;1.41;85.44;101844.25;4995540;28;20080;-78
2021/01/09 02:47:59;;;;;;;7.40;4.60;;;;;;;1.42;84.87;101848.59;4993960;28;20531;-77
2021/01/09 02:50:25;;;;;;;6.50;4.28;;;;;;;1.42;85.20;101846.78;4993550;28;20487;-77
2021/01/09 02:52:50;;;;;;;9.25;5.20;;;;;;;1.45;85.52;101848.25;4984328;28;20101;-77
2021/01/09 02:55:15;;;;;;;8.88;5.07;;;;;;;1.45;85.19;101853.63;4995230;28;20026;-78
2021/01/09 02:57:41;;;;;;;9.23;5.72;;;;;;;1.43;84.88;101845.75;4993524;28;20383;-77
2021/01/09 03:00:07;;;;;;;6.88;4.88;;;;;;;1.42;84.83;101851.28;4992941;28;20042;-78
2021/01/09 03:02:32;;;;;;;7.70;5.28;;;;;;;1.39;84.97;101854.34;4992349;28;20037;-78
2021/01/09 03:04:57;;;;;;;8.27;5.10;;;;;;;1.38;84.78;101853.53;4994035;28;20030;-78
2021/01/09 03:07:23;;;;;;;8.15;4.93;;;;;;;1.35;85.54;101853.06;4990724;28;20060;-77
2021/01/09 03:09:48;;;;;;;9.02;5.03;;;;;;;1.32;85.08;101854.28;4993135;28;20026;-78
2021/01/09 03:12:13;;;;;;;9.40;5.07;;;;;;;1.29;85.34;101850.13;4992755;28;20065;-78
2021/01/09 03:14:39;;;;;;;9.57;5.45;;;;;;;1.25;84.60;101853.34;4993077;28;20034;-78
2021/01/09 03:17:04;;;;;;;9.00;5.22;;;;;;;1.23;85.24;101842.81;4976716;28;20030;-78
2021/01/09 03:19:30;;;;;;;7.25;5.03;;;;;;;1.23;85.31;101852.72;4994226;28;20486;-78
2021/01/09 03:21:56;;;;;;;9.07;5.63;;;;;;;1.23;85.03;101850.88;4993216;28;20030;-78
2021/01/09 03:24:21;;;;;;;9.05;5.22;;;;;;;1.22;84.71;101851.88;4990928;28;20901;-78
2021/01/09 03:26:47;;;;;;;8.18;5.45;;;;;;;1.21;85.24;101854.75;4994626;28;20080;-77
2021/01/09 03:29:13;;;;;;;8.43;4.75;;;;;;;1.21;84.85;101860.94;4992139;28;20491;-77
2021/01/09 03:31:38;;;;;;;7.97;4.68;;;;;;;1.20;84.81;101858.44;4975383;28;20045;-78
2021/01/09 03:34:04;;;;;;;10.13;5.07;;;;;;;1.20;85.23;101861.13;4991985;28;20026;-77
2021/01/09 03:36:29;;;;;;;8.20;5.15;;;;;;;1.19;85.06;101860.28;4989392;28;20734;-78
2021/01/09 03:38:54;;;;;;;7.75;4.65;;;;;;;1.19;84.78;101859.47;4989404;28;20521;-78
2021/01/09 03:41:20;;;;;;;8.93;4.63;;;;;;;1.18;84.96;101853.28;4993023;28;20038;-78
2021/01/09 03:43:45;;;;;;;7.95;4.50;;;;;;;1.18;84.92;101868.56;4990291;28;20030;-77
2021/01/09 03:46:10;;;;;;;7.20;4.32;;;;;;;1.18;85.13;101864.00;4991591;28;20498;-78
2021/01/09 03:48:36;;;;;;;9.05;5.10;;;;;;;1.20;84.93;101863.81;4989577;28;20030;-77
2021/01/09 03:51:01;;;;;;;7.85;4.82;;;;;;;1.20;84.48;101866.50;4992106;28;20026;-78
2021/01/09 03:53:27;;;;;;;7.38;4.53;;;;;;;1.21;84.95;101863.63;4992883;28;20026;-77
2021/01/09 03:55:52;;;;;;;9.77;4.90;;;;;;;1.25;85.18;101866.78;4990342;28;20373;-78
2021/01/09 03:58:17;;;;;;;10.95;5.82;;;;;;;1.27;84.60;101867.44;4991645;28;20030;-78
2021/01/09 04:00:43;;;;;;;10.98;5.57;;;;;;;1.29;85.07;101862.72;4991801;28;20027;-78
2021/01/09 04:03:08;;;;;;;9.60;5.53;;;;;;;1.30;84.85;101862.50;4993744;28;20100;-77
2021/01/09 04:05:34;;;;;;;9.70;5.60;;;;;;;1.30;85.10;101862.50;4990446;28;20049;-77
2021/01/09 04:07:59;;;;;;;10.68;5.82;;;;;;;1.30;84.79;101862.50;4991879;28;20101;-77
2021/01/09 04:10:24;;;;;;;9.35;5.50;;;;;;;1.31;84.65;101863.38;4989375;28;20039;-77
2021/01/09 04:12:50;;;;;;;7.95;5.68;;;;;;;1.30;84.34;101862.50;4992154;28;20057;-77
2021/01/09 04:15:15;;;;;;;9.52;5.68;;;;;;;1.29;84.93;101873.47;4992496;28;20073;-77
2021/01/09 04:17:41;;;;;;;10.68;6.15;;;;;;;1.30;85.06;101873.25;4991772;28;20419;-77
2021/01/09 04:20:08;;;;;;;9.55;5.85;;;;;;;1.29;85.07;101876.16;4991207;28;20112;-77
2021/01/09 04:22:33;;;;;;;9.25;5.85;;;;;;;1.31;85.09;101879.50;4993972;28;20028;-77
2021/01/09 04:24:58;;;;;;;8.15;5.70;;;;;;;1.31;84.52;101888.38;4974497;28;20058;-77
2021/01/09 04:27:24;;;;;;;8.98;5.75;;;;;;;1.31;84.89;101884.88;4991338;28;20033;-78
2021/01/09 04:29:49;;;;;;;10.02;5.65;;;;;;;1.32;85.22;101881.97;4991820;28;20412;-78
2021/01/09 04:32:14;;;;;;;10.30;5.53;;;;;;;1.32;85.17;101884.66;4992379;28;20026;-77
2021/01/09 04:34:40;;;;;;;8.65;5.15;;;;;;;1.32;84.96;101887.34;4989066;28;20022;-77
2021/01/09 04:37:06;;;;;;;10.65;5.55;;;;;;;1.35;85.31;101885.31;4992445;28;20348;-78
2021/01/09 04:39:31;;;;;;;7.85;5.25;;;;;;;1.37;84.56;101888.66;4988946;28;20026;-77
2021/01/09 04:41:58;;;;;;;8.43;5.55;;;;;;;1.37;84.41;101892.19;4980776;28;20045;-78
2021/01/09 04:44:24;;;;;;;11.60;5.97;;;;;;;1.37;85.12;101891.34;4990645;28;20032;-77
2021/01/09 04:46:50;;;;;;;9.38;5.85;;;;;;;1.37;84.87;101888.66;4991003;28;20026;-77
2021/01/09 04:49:17;;;;;;;9.18;5.43;;;;;;;1.38;85.13;101896.53;4974553;28;20471;-77
2021/01/09 04:51:42;;;;;;;9.57;6.15;;;;;;;1.39;84.88;101897.34;4986751;28;20101;-78
2021/01/09 04:54:11;;;;;;;9.20;5.90;;;;;;;1.40;84.61;101899.03;4989469;28;20491;-77
2021/01/09 04:56:36;;;;;;;9.80;5.43;;;;;;;1.39;84.71;101895.53;4975033;28;20035;-77
2021/01/09 04:59:02;;;;;;;8.63;6.03;;;;;;;1.37;84.86;101889.50;4972284;28;20026;-77
2021/01/09 05:01:29;;;;;;;9.48;5.47;;;;;;;1.39;84.50;101902.72;4968995;28;20503;-77
2021/01/09 05:03:54;;;;;;;9.60;5.90;;;;;;;1.38;84.52;101899.22;4991838;28;20042;-77
2021/01/09 05:06:20;;;;;;;8.50;5.50;;;;;;;1.38;84.72;101901.06;4971206;28;20488;-78
2021/01/09 05:08:45;;;;;;;9.15;5.40;;;;;;;1.37;84.57;101899.41;4956172;28;20037;-77
2021/01/09 05:11:11;;;;;;;8.95;5.35;;;;;;;1.33;84.74;101898.94;4991990;28;20026;-78
2021/01/09 05:13:36;;;;;;;8.52;5.35;;;;;;;1.30;84.21;101894.75;4991458;28;20049;-78
2021/01/09 05:16:02;;;;;;;9.15;5.25;;;;;;;1.29;84.59;101898.47;4991383;28;20045;-78
2021/01/09 05:18:32;;;;;;;10.05;5.63;;;;;;;1.28;84.38;101906.69;4990537;28;20041;-78
2021/01/09 05:21:00;;;;;;;9.05;5.45;;;;;;;1.26;85.01;101904.22;4989930;28;20069;-77
2021/01/09 05:23:27;;;;;;;9.25;4.63;;;;;;;1.23;84.48;101903.75;4990695;28;20026;-78
2021/01/09 05:25:53;;;;;;;10.18;4.93;;;;;;;1.19;84.51;101905.97;4992891;28;20042;-78
2021/01/09 05:28:19;;;;;;;7.10;5.03;;;;;;;1.15;84.70;101910.03;4990544;28;20387;-78
2021/01/09 05:30:44;;;;;;;10.38;5.72;;;;;;;1.09;84.18;101914.31;4992001;28;20505;-78
2021/01/09 05:33:09;;;;;;;9.10;5.97;;;;;;;1.01;84.17;101911.69;4974410;28;20092;-78
2021/01/09 05:35:35;;;;;;;9.30;5.07;;;;;;;0.93;84.67;101906.41;4991209;28;20034;-78
2021/01/09 05:38:01;;;;;;;8.98;5.35;;;;;;;0.85;84.66;101907.31;4989718;28;20392;-78
2021/01/09 05:40:26;;;;;;;10.43;5.13;;;;;;;0.78;84.10;101911.72;4990106;28;20027;-77
2021/01/09 05:42:51;;;;;;;8.00;4.97;;;;;;;0.70;84.72;101917.16;4990405;28;20019;-78
2021/01/09 05:45:17;;;;;;;9.13;5.65;;;;;;;0.65;84.58;101917.72;4991495;28;20444;-77
2021/01/09 05:47:43;;;;;;;9.35;5.05;;;;;;;0.61;84.62;101923.63;4974423;28;20053;-78
2021/01/09 05:50:08;;;;;;;9.30;6.00;;;;;;;0.57;84.40;101928.53;4975771;28;20022;-78
2021/01/09 05:52:39;;;;;;;11.95;6.32;;;;;;;0.53;84.29;101921.00;4991165;28;20030;-78
2021/01/09 05:55:05;;;;;;;13.13;5.97;;;;;;;0.50;84.08;101918.69;4992208;28;20080;-78
2021/01/09 05:57:32;;;;;;;9.95;5.38;;;;;;;0.45;84.18;101927.25;4990067;28;20109;-78
2021/01/09 05:59:58;;;;;;;10.52;5.10;;;;;;;0.44;84.41;101922.91;4987480;28;20026;-77
2021/01/09 06:02:24;;;;;;;9.25;5.32;;;;;;;0.40;84.63;101925.09;4970386;28;20034;-77
2021/01/09 06:04:55;;;;;;;12.02;6.22;;;;;;;0.38;84.48;101926.28;4990394;28;20392;-77
2021/01/09 06:07:22;;;;;;;9.88;5.78;;;;;;;0.36;84.19;101928.34;4988596;28;20033;-77
2021/01/09 06:09:56;;;;;;;7.70;5.03;;;;;;;0.33;84.16;101929.53;4988985;28;20487;-77
2021/01/09 06:12:22;;;;;;;8.57;4.78;;;;;;;0.33;84.33;101928.69;4986938;28;20121;-77
2021/01/09 06:14:47;;;;;;;9.15;5.50;;;;;;;0.33;84.38;101931.38;4990681;28;20390;-77
2021/01/09 06:17:13;;;;;;;8.00;4.93;;;;;;;0.32;84.28;101932.38;4973803;28;20030;-77
2021/01/09 06:19:38;;;;;;;8.40;4.90;;;;;;;0.30;84.10;101935.25;4990665;28;20031;-77
2021/01/09 06:22:04;;;;;;;9.57;4.78;;;;;;;0.29;84.04;101935.41;4971566;28;20528;-77
2021/01/09 06:24:29;;;;;;;8.85;4.93;;;;;;;0.27;84.44;101938.25;4972676;28;20447;-76
2021/01/09 06:26:55;;;;;;;8.57;5.22;;;;;;;0.25;84.35;101932.28;4973692;28;20034;-76
2021/01/09 06:29:25;;;;;;;8.05;4.97;;;;;;;0.24;84.63;101938.63;4989661;28;20464;-76
2021/01/09 06:31:54;;;;;;;10.10;5.22;;;;;;;0.24;84.14;101946.66;4958516;28;20365;-76
2021/01/09 06:34:21;;;;;;;8.77;5.15;;;;;;;0.23;84.06;101950.38;4990036;28;20030;-76
2021/01/09 06:36:58;;;;;;;8.45;5.28;;;;;;;0.21;84.58;101957.75;4969487;28;20448;-76
2021/01/09 06:39:36;;;;;;;9.68;5.10;;;;;;;0.21;84.40;101952.38;4989005;28;20105;-79
2021/01/09 06:42:04;;;;;;;9.77;5.60;;;;;;;0.22;84.21;101959.44;5004096;28;20031;-77
2021/01/09 06:44:29;;;;;;;10.30;6.15;;;;;;;0.21;84.07;101957.75;4969942;28;20026;-76
2021/01/09 06:46:55;;;;;;;11.85;6.47;;;;;;;0.22;84.12;101959.44;4992502;28;20022;-76
2021/01/09 06:49:21;;;;;;;12.13;6.22;;;;;;;0.21;84.34;101957.75;4989724;28;20022;-76
2021/01/09 06:52:03;;;;;;;12.30;6.28;;;;;;;0.19;84.31;101954.41;4993638;28;20430;-76
2021/01/09 06:54:37;;;;;;;10.50;5.60;;;;;;;0.18;84.23;101958.94;4987883;28;20026;-76
2021/01/09 06:57:02;;;;;;;9.77;6.20;;;;;;;0.18;84.65;101966.16;4993910;28;20026;-76
2021/01/09 06:59:34;;;;;;;9.65;5.40;;;;;;;0.17;84.44;101970.69;4993409;28;20468;-76
2021/01/09 07:02:13;;;;;;;10.35;6.38;;;;;;;0.18;84.68;101969.66;4978308;28;20018;-76
2021/01/09 07:05:14;;;;;;;10.35;5.97;;;;;;;0.21;84.38;101976.53;4989265;28;20475;-76
2021/01/09 07:07:52;;;;;;;13.10;6.78;;;;;;;0.20;84.20;101983.75;4985686;28;20042;-76
2021/01/09 07:10:19;;;;;;;14.10;6.57;;;;;;;0.23;84.70;101987.91;4977976;28;20391;-77
2021/01/09 07:12:56;;;;;;;10.30;6.28;;;;;;;0.23;84.62;101982.56;4983206;28;20045;-76
2021/01/09 07:15:22;;;;;;;10.82;6.30;;;;;;;0.26;84.14;101987.56;4977470;28;20456;-77
2021/01/09 07:17:50;;;;;;;12.73;7.32;;;;;;;0.28;84.90;101985.56;4986246;28;20038;-77
2021/01/09 07:20:18;;;;;;;13.85;6.97;;;;;;;0.31;84.53;101989.72;4994227;28;20105;-77
2021/01/09 07:22:46;;;;;;;13.02;6.57;;;;;;;0.35;84.71;101988.34;4984538;28;20022;-77
2021/01/09 07:25:11;;;;;;;12.02;6.22;;;;;;;0.36;84.61;101988.19;4974564;28;20495;-77
2021/01/09 07:27:44;;;;;;;15.57;7.00;;;;;;;0.36;84.47;101995.41;4991170;28;20036;-76
2021/01/09 07:30:14;;;;;;;12.55;6.90;;;;;;;0.34;84.77;101987.53;4994265;28;20018;-77
2021/01/09 07:32:45;;;;;;;13.77;7.30;;;;;;;0.36;84.69;101995.41;4992569;28;21854;-76
2021/01/09 07:35:10;;;;;;;13.60;7.07;;;;;;;0.37;84.44;101995.22;4971861;28;20031;-76
2021/01/09 07:37:40;;;;;;;15.68;7.03;;;;;;;0.38;84.39;101999.59;4990217;28;20500;-77
2021/01/09 07:40:24;;;;;;;13.70;7.13;;;;;;;0.38;84.52;102007.63;4987251;28;20089;-77
2021/01/09 07:42:49;;;;;;;13.43;7.75;;;;;;;0.40;84.31;102005.59;4989320;28;20129;-77
2021/01/09 07:45:18;;;;;;;15.43;8.05;;;;;;;0.42;84.68;102011.63;4991202;28;20097;-77
2021/01/09 07:47:44;;;;;;;12.38;6.47;;;;;;;0.42;84.76;102008.94;4974079;28;20615;-77
2021/01/09 07:50:11;;;;;;;16.00;7.97;;;;;;;0.43;84.57;102013.28;4992439;28;20031;-77
2021/01/09 07:52:37;;;;;;;13.02;7.18;;;;;;;0.42;84.63;102011.63;4989619;28;20105;-76
2021/01/09 07:55:03;;;;;;;14.65;7.82;;;;;;;0.41;84.26;102017.19;4990584;28;20395;-77
2021/01/09 07:57:30;;;;;;;13.90;6.88;;;;;;;0.41;84.65;102018.00;4970135;28;20483;-77
2021/01/09 07:59:56;;;;;;;13.55;7.47;;;;;;;0.43;84.45;102023.19;4988473;28;20472;-77
2021/01/09 08:02:25;;;;;;;12.32;6.53;;;;;;;0.43;84.70;102018.66;4990822;28;20045;-77
2021/01/09 08:04:50;;;;;;;11.35;6.10;;;;;;;0.43;84.42;102015.13;4987063;28;20046;-77
2021/01/09 08:07:16;;;;;;;13.00;6.95;;;;;;;0.39;84.63;102025.38;4990785;28;20034;-77
2021/01/09 08:09:41;;;;;;;12.45;6.43;;;;;;;0.39;84.99;102017.34;4989845;28;20068;-77
2021/01/09 08:12:07;;;;;;;11.65;6.32;;;;;;;0.38;84.45;102012.13;4990675;28;20030;-80
2021/01/09 08:14:33;;;;;;;12.82;7.05;;;;;;;0.37;84.82;102016.66;4989379;28;20236;-81
2021/01/09 08:17:25;;;;;;;15.27;7.10;;;;;;;0.34;84.63;102008.16;4991005;28;20034;-80
2021/01/09 08:19:50;;;;;;;11.97;6.47;;;;;;;0.32;84.80;102013.69;4989284;28;20030;-80
2021/01/09 08:22:16;;;;;;;15.45;7.75;;;;;;;0.31;84.67;102025.44;4990890;28;20287;-80
2021/01/09 08:24:43;;;;;;;14.30;7.43;;;;;;;0.28;84.37;102017.75;4988928;28;20392;-80
2021/01/09 08:27:08;;;;;;;13.65;6.45;;;;;;;0.28;84.51;102028.47;4990044;28;20022;-79
2021/01/09 08:29:33;;;;;;;12.40;6.47;;;;;;;0.24;84.34;102032.50;4989635;28;20046;-80
2021/01/09 08:31:59;;;;;;;13.15;7.32;;;;;;;0.21;84.57;102030.16;4974431;28;20022;-79
2021/01/09 08:34:24;;;;;;;12.02;6.30;;;;;;;0.17;84.04;102031.53;4987340;28;20037;-80
2021/01/09 08:36:52;;;;;;;9.75;5.80;;;;;;;0.13;84.48;102027.53;4987513;28;20697;-78
2021/01/09 08:39:17;;;;;;;10.68;5.55;;;;;;;0.08;84.51;102033.44;4973038;28;20045;-79
2021/01/09 08:41:43;;;;;;;12.98;6.78;;;;;;;0.07;84.29;102038.94;4990769;28;20034;-79
2021/01/09 08:44:12;;;;;;;11.40;6.10;;;;;;;0.03;84.40;102035.78;4972440;28;20070;-78
2021/01/09 08:46:38;;;;;;;11.90;6.82;;;;;;;0.00;84.62;102038.81;4992005;28;20030;-79
2021/01/09 08:49:05;;;;;;;14.35;6.82;;;;;;;-0.04;84.42;102030.25;4974970;28;20049;-81
2021/01/09 08:51:32;;;;;;;14.30;7.40;;;;;;;-0.07;84.22;102038.66;4990868;28;20046;-80
2021/01/09 08:54:02;;;;;;;16.08;8.18;;;;;;;-0.08;84.47;102038.84;4973949;28;20029;-75
2021/01/09 08:56:28;;;;;;;16.63;8.32;;;;;;;-0.10;84.30;102039.00;4998082;28;20030;-80
2021/01/09 08:58:53;;;;;;;17.75;8.52;;;;;;;-0.13;84.29;102034.00;4988804;28;20026;-80
2021/01/09 09:01:22;;;;;;;15.32;7.15;;;;;;;-0.13;84.20;102050.06;4991558;28;20026;-80
2021/01/09 09:03:48;;;;;;;12.82;6.75;;;;;;;-0.13;84.16;102043.88;4984445;28;20030;-82
2021/01/09 09:06:16;;;;;;;17.27;8.15;;;;;;;-0.10;84.48;102055.09;4983883;28;20022;-80
2021/01/09 09:08:43;;;;;;;20.83;9.70;;;;;;;-0.08;83.93;102061.13;4990384;28;20026;-82
2021/01/09 09:11:08;;;;;;;16.08;7.43;;;;;;;-0.07;84.16;102062.78;5007251;28;20487;-82
2021/01/09 09:13:34;;;;;;;16.65;8.38;;;;;;;-0.04;83.84;102057.06;4992104;28;20030;-80
2021/01/09 09:16:14;;;;;;;17.55;8.95;;;;;;;-0.03;84.07;102060.59;4975555;28;20084;-80
2021/01/09 09:18:41;;;;;;;17.38;7.50;;;;;;;-0.01;84.20;102064.75;4989777;28;20030;-79
2021/01/09 09:21:10;;;;;;;16.92;7.55;;;;;;;0.05;84.11;102070.44;4987999;28;20038;-81
2021/01/09 09:23:35;;;;;;;12.23;7.13;;;;;;;0.08;84.36;102070.97;4990636;28;20034;-80
2021/01/09 09:26:04;;;;;;;14.80;8.45;;;;;;;0.13;84.51;102067.75;4987841;28;20491;-80
2021/01/09 09:28:30;;;;;;;13.75;7.65;;;;;;;0.17;84.49;102074.44;4990465;28;20022;-79
2021/01/09 09:30:55;;;;;;;14.48;7.25;;;;;;;0.24;84.43;102074.56;4988017;28;20398;-80
2021/01/09 09:33:20;;;;;;;11.93;6.78;;;;;;;0.29;84.51;102073.03;4983122;28;20061;-80
2021/01/09 09:35:46;;;;;;;13.10;6.80;;;;;;;0.38;83.94;102080.06;4990383;28;20487;-80
2021/01/09 09:38:11;;;;;;;13.75;6.90;;;;;;;0.47;84.24;102075.50;4990763;28;20030;-80
2021/01/09 09:40:38;;;;;;;10.18;5.60;;;;;;;0.55;83.96;102078.13;4991266;28;20026;-80
2021/01/09 09:43:14;;;;;;;14.43;6.80;;;;;;;0.66;84.58;102074.22;4986970;28;20069;-80
2021/01/09 09:45:46;;;;;;;13.65;6.43;;;;;;;0.74;83.71;102071.50;4990049;28;20034;-79
2021/01/09 09:48:11;;;;;;;14.20;6.78;;;;;;;0.80;83.81;102070.78;4987585;28;20109;-81
2021/01/09 09:50:38;;;;;;;12.13;6.15;;;;;;;0.85;83.92;102079.13;4988315;28;20027;-79
2021/01/09 09:53:06;;;;;;;13.57;7.03;;;;;;;0.93;84.10;102075.56;4987733;28;20026;-78
2021/01/09 09:55:32;;;;;;;12.90;6.72;;;;;;;1.02;83.52;102074.47;4988375;28;20037;-79
2021/01/09 09:58:07;;;;;;;14.65;6.82;;;;;;;1.09;84.31;102066.53;4990310;28;20022;-79
2021/01/09 10:00:42;;;;;;;14.55;7.55;;;;;;;1.15;83.92;102060.47;4986299;28;20124;-79
2021/01/09 10:03:07;;;;;;;11.70;6.60;;;;;;;1.15;83.99;102057.78;4986971;28;21504;-78
2021/01/09 10:05:34;;;;;;;9.82;6.07;;;;;;;1.12;83.92;102058.16;4982771;28;20109;-79
2021/01/09 10:08:08;;;;;;;10.13;5.95;;;;;;;1.13;83.51;102067.84;4990781;28;20041;-79
2021/01/09 10:10:34;;;;;;;9.23;5.75;;;;;;;1.10;83.43;102061.00;4989320;28;20396;-79
2021/01/09 10:12:59;;;;;;;8.93;5.93;;;;;;;1.08;83.56;102052.28;4990284;28;20023;-78
2021/01/09 10:15:25;;;;;;;11.10;5.55;;;;;;;1.06;83.86;102048.09;4992727;28;20034;-79
2021/01/09 10:17:51;;;;;;;10.02;5.15;;;;;;;1.01;83.37;102053.16;4990667;28;20050;-80
2021/01/09 10:20:17;;;;;;;10.13;5.30;;;;;;;1.00;83.77;102052.34;4993394;28;20033;-79
2021/01/09 10:22:42;;;;;;;11.38;5.90;;;;;;;1.03;83.37;102059.19;4993049;28;20022;-80
2021/01/09 10:25:08;;;;;;;9.88;5.53;;;;;;;1.09;83.49;102071.91;4987769;28;20097;-74
2021/01/09 10:27:34;;;;;;;9.57;5.13;;;;;;;1.13;83.32;102059.81;4992589;28;20030;-74
2021/01/09 10:29:59;;;;;;;7.70;4.97;;;;;;;1.19;83.65;102058.25;4976433;28;20034;-76
2021/01/09 10:32:24;;;;;;;9.77;5.20;;;;;;;1.24;83.51;102056.69;4992684;28;20035;-75
2021/01/09 10:34:50;;;;;;;7.80;4.93;;;;;;;1.28;83.04;102055.31;4991702;28;20041;-75
2021/01/09 10:37:15;;;;;;;7.50;4.43;;;;;;;1.29;83.21;102059.66;4976293;28;20045;-74
2021/01/09 10:39:40;;;;;;;7.82;4.55;;;;;;;1.35;83.23;102062.66;4987326;28;20026;-80
2021/01/09 10:42:06;;;;;;;6.75;3.90;;;;;;;1.40;82.87;102055.72;4991719;28;20034;-78
2021/01/09 10:44:31;;;;;;;6.13;3.85;;;;;;;1.48;83.09;102055.63;4993143;28;20022;-80
2021/01/09 10:46:57;;;;;;;6.70;4.00;;;;;;;1.63;82.96;102049.44;4990556;28;20547;-80
2021/01/09 10:49:22;;;;;;;5.30;3.40;;;;;;;1.70;82.44;102051.22;4993048;28;20034;-81
2021/01/09 10:51:47;;;;;;;8.93;3.92;;;;;;;1.68;82.80;102050.56;4992703;28;20037;-77
2021/01/09 10:54:13;;;;;;;6.55;3.78;;;;;;;1.66;82.98;102043.69;4992243;28;20037;-77
2021/01/09 10:56:45;;;;;;;7.63;3.97;;;;;;;1.61;82.35;102035.34;4992340;28;20030;-79
2021/01/09 10:59:11;;;;;;;8.25;4.20;;;;;;;1.57;82.84;102040.25;4991688;28;20057;-78
2021/01/09 11:01:36;;;;;;;10.20;5.25;;;;;;;1.52;82.75;102027.38;4976121;28;20158;-80
2021/01/09 11:04:02;;;;;;;9.30;5.38;;;;;;;1.50;82.62;102024.06;4991656;28;20034;-74
2021/01/09 11:06:27;;;;;;;14.30;7.70;;;;;;;1.46;82.80;102020.03;4994145;28;20030;-75
2021/01/09 11:08:53;;;;;;;19.15;9.68;;;;;;;1.42;82.71;102021.44;4976491;28;20030;-75
2021/01/09 11:11:20;;;;;;;20.92;10.55;;;;;;;1.39;82.60;102023.63;4993971;28;20036;-75
2021/01/09 11:13:45;;;;;;;20.38;10.07;;;;;;;1.32;82.17;102018.16;4992808;28;20037;-75
2021/01/09 11:16:11;;;;;;;17.17;8.07;;;;;;;1.30;82.53;102018.34;4993001;28;20030;-75
2021/01/09 11:18:36;;;;;;;17.80;8.82;;;;;;;1.31;82.38;102025.41;4993842;28;20034;-75
2021/01/09 11:21:01;;;;;;;19.50;10.57;;;;;;;1.31;81.94;102017.34;4985795;28;20463;-75
2021/01/09 11:23:27;;;;;;;17.35;9.57;;;;;;;1.30;82.22;102026.41;4990726;28;20030;-75
2021/01/09 11:25:52;;;;;;;18.10;9.98;;;;;;;1.28;82.47;102025.78;4993383;28;20054;-74
2021/01/09 11:28:18;;;;;;;24.88;12.15;;;;;;;1.28;82.39;102014.16;4983160;28;20031;-75